CEB460 RPVI-RPLL
Flight info
| Callsign | CEB460 |
|---|---|
| Flight time | 0h 50m |
| Altitude | 30000 |
| Route | LAMBO1N LAMBO B472 IBAGO IBAGO5P |
| Aircraft | A21N/M-SDE3FGHIRWY/LB1 |
Departure
| Time | 2026-04-17 12:39 |
|---|---|
| Airport | Iloilo International Airport (RPVI) |
Arrival
| Time | 2026-04-17 13:29 |
|---|---|
| Airport | Ninoy Aquino International Airport (RPLL) |
| Time | Latitude | Longitude | Altitude | Speed | Heading |
|---|---|---|---|---|---|
| 2026-04-17 12:22 | 10.83165 | 122.49659 | 175 ft | 0 kts | 110° |
| 2026-04-17 12:27 | 10.83167 | 122.49653 | 175 ft | 2 kts | 108° |
| 2026-04-17 12:27 | 10.83172 | 122.49638 | 175 ft | 2 kts | 111° |
| 2026-04-17 12:27 | 10.83177 | 122.49624 | 175 ft | 2 kts | 110° |
| 2026-04-17 12:28 | 10.83182 | 122.49609 | 175 ft | 2 kts | 110° |
| 2026-04-17 12:28 | 10.83191 | 122.49596 | 175 ft | 2 kts | 149° |
| 2026-04-17 12:28 | 10.83205 | 122.49593 | 175 ft | 2 kts | 184° |
| 2026-04-17 12:28 | 10.83213 | 122.49593 | 175 ft | 0 kts | 203° |
| 2026-04-17 12:29 | 10.83219 | 122.49596 | 175 ft | 0 kts | 201° |
| 2026-04-17 12:32 | 10.83218 | 122.49596 | 175 ft | 0 kts | 201° |
| 2026-04-17 12:32 | 10.83211 | 122.49593 | 175 ft | 1 kts | 200° |
| 2026-04-17 12:32 | 10.83193 | 122.49586 | 175 ft | 3 kts | 200° |
| 2026-04-17 12:32 | 10.83165 | 122.49577 | 175 ft | 4 kts | 199° |
| 2026-04-17 12:33 | 10.83131 | 122.49564 | 175 ft | 5 kts | 199° |
| 2026-04-17 12:33 | 10.83090 | 122.49549 | 175 ft | 6 kts | 199° |
| 2026-04-17 12:33 | 10.83044 | 122.49532 | 175 ft | 7 kts | 208° |
| 2026-04-17 12:33 | 10.83027 | 122.49486 | 175 ft | 8 kts | 284° |
| 2026-04-17 12:34 | 10.83046 | 122.49429 | 175 ft | 8 kts | 289° |
| 2026-04-17 12:34 | 10.83069 | 122.49366 | 175 ft | 9 kts | 290° |
| 2026-04-17 12:34 | 10.83092 | 122.49300 | 176 ft | 8 kts | 281° |
| 2026-04-17 12:34 | 10.83062 | 122.49249 | 176 ft | 9 kts | 206° |
| 2026-04-17 12:35 | 10.82997 | 122.49223 | 176 ft | 10 kts | 200° |
| 2026-04-17 12:35 | 10.82926 | 122.49197 | 176 ft | 11 kts | 200° |
| 2026-04-17 12:35 | 10.82851 | 122.49170 | 176 ft | 11 kts | 200° |
| 2026-04-17 12:35 | 10.82773 | 122.49141 | 176 ft | 12 kts | 200° |
| 2026-04-17 12:37 | 10.82246 | 122.48953 | 176 ft | 2 kts | 309° |
| 2026-04-17 12:37 | 10.82273 | 122.48956 | 176 ft | 4 kts | 18° |
| 2026-04-17 12:38 | 10.82288 | 122.48962 | 176 ft | 0 kts | 19° |
| 2026-04-17 12:38 | 10.82298 | 122.48965 | 176 ft | 13 kts | 19° |
| 2026-04-17 12:38 | 10.82645 | 122.49093 | 176 ft | 90 kts | 20° |
| 2026-04-17 12:38 | 10.83459 | 122.49395 | 177 ft | 152 kts | 21° |
| 2026-04-17 12:39 | 10.84520 | 122.49799 | 548 ft | 168 kts | 22° |
| 2026-04-17 12:39 | 10.85600 | 122.50232 | 1196 ft | 165 kts | 23° |
| 2026-04-17 12:39 | 10.86658 | 122.50657 | 1820 ft | 163 kts | 23° |
| 2026-04-17 12:39 | 10.87705 | 122.51071 | 2189 ft | 164 kts | 22° |
| 2026-04-17 12:40 | 10.88800 | 122.51467 | 2453 ft | 172 kts | 20° |
| 2026-04-17 12:40 | 10.89888 | 122.51842 | 2767 ft | 177 kts | 21° |
| 2026-04-17 12:40 | 10.90579 | 122.52084 | 2932 ft | 186 kts | 21° |
| 2026-04-17 12:40 | 10.91446 | 122.52393 | 3130 ft | 196 kts | 21° |
| 2026-04-17 12:41 | 10.92835 | 122.52666 | 3387 ft | 214 kts | 356° |
| 2026-04-17 12:41 | 10.94274 | 122.52039 | 3627 ft | 237 kts | 325° |
| 2026-04-17 12:41 | 10.95602 | 122.50977 | 3931 ft | 253 kts | 324° |
| 2026-04-17 12:41 | 10.97035 | 122.49849 | 4465 ft | 260 kts | 324° |
| 2026-04-17 12:42 | 10.98455 | 122.48746 | 5102 ft | 262 kts | 324° |
| 2026-04-17 12:42 | 10.99935 | 122.47602 | 5638 ft | 269 kts | 324° |
| 2026-04-17 12:42 | 11.01446 | 122.46444 | 6139 ft | 278 kts | 324° |
| 2026-04-17 12:42 | 11.03014 | 122.45242 | 6808 ft | 281 kts | 324° |
| 2026-04-17 12:43 | 11.04564 | 122.44052 | 7456 ft | 283 kts | 324° |
| 2026-04-17 12:43 | 11.06151 | 122.42833 | 8088 ft | 286 kts | 324° |
| 2026-04-17 12:43 | 11.07744 | 122.41612 | 8696 ft | 289 kts | 325° |
| 2026-04-17 12:43 | 11.09356 | 122.40376 | 9284 ft | 292 kts | 325° |
| 2026-04-17 12:44 | 11.11009 | 122.39113 | 9867 ft | 295 kts | 324° |
| 2026-04-17 12:44 | 11.12641 | 122.37863 | 10389 ft | 299 kts | 324° |
| 2026-04-17 12:44 | 11.14363 | 122.36549 | 10658 ft | 313 kts | 326° |
| 2026-04-17 12:44 | 11.16210 | 122.35318 | 10901 ft | 326 kts | 331° |
| 2026-04-17 12:45 | 11.18280 | 122.34234 | 11221 ft | 335 kts | 338° |
| 2026-04-17 12:45 | 11.20416 | 122.33289 | 11730 ft | 337 kts | 339° |
| 2026-04-17 12:45 | 11.22593 | 122.32352 | 12265 ft | 339 kts | 339° |
| 2026-04-17 12:45 | 11.24763 | 122.31419 | 12766 ft | 341 kts | 339° |
| 2026-04-17 12:46 | 11.26969 | 122.30469 | 13251 ft | 343 kts | 339° |
| 2026-04-17 12:46 | 11.29150 | 122.29528 | 13732 ft | 345 kts | 339° |
| 2026-04-17 12:46 | 11.31372 | 122.28567 | 14213 ft | 346 kts | 339° |
| 2026-04-17 12:46 | 11.33603 | 122.27602 | 14668 ft | 349 kts | 339° |
| 2026-04-17 12:47 | 11.35853 | 122.26628 | 15123 ft | 350 kts | 339° |
| 2026-04-17 12:47 | 11.38092 | 122.25664 | 15565 ft | 352 kts | 339° |
| 2026-04-17 12:47 | 11.40367 | 122.24681 | 15989 ft | 354 kts | 339° |
| 2026-04-17 12:47 | 11.42632 | 122.23701 | 16401 ft | 356 kts | 339° |
| 2026-04-17 12:48 | 11.44943 | 122.22703 | 16811 ft | 358 kts | 339° |
| 2026-04-17 12:48 | 11.47229 | 122.21712 | 17211 ft | 360 kts | 339° |
| 2026-04-17 12:48 | 11.49538 | 122.20711 | 17602 ft | 362 kts | 339° |
| 2026-04-17 12:48 | 11.51870 | 122.19699 | 17965 ft | 364 kts | 339° |
| 2026-04-17 12:49 | 11.54205 | 122.18686 | 18318 ft | 366 kts | 339° |
| 2026-04-17 12:49 | 11.56569 | 122.17660 | 18652 ft | 369 kts | 339° |
| 2026-04-17 12:49 | 11.58957 | 122.16624 | 18988 ft | 372 kts | 339° |
| 2026-04-17 12:49 | 11.61346 | 122.15587 | 19311 ft | 374 kts | 339° |
| 2026-04-17 12:50 | 11.63725 | 122.14554 | 19625 ft | 376 kts | 339° |
| 2026-04-17 12:50 | 11.66154 | 122.13499 | 19936 ft | 379 kts | 338° |
| 2026-04-17 12:50 | 11.68592 | 122.12439 | 20240 ft | 381 kts | 338° |
| 2026-04-17 12:50 | 11.71049 | 122.11371 | 20547 ft | 383 kts | 338° |
| 2026-04-17 12:51 | 11.73516 | 122.10299 | 20844 ft | 386 kts | 338° |
| 2026-04-17 12:51 | 11.75989 | 122.09224 | 21137 ft | 387 kts | 338° |
| 2026-04-17 12:51 | 11.78488 | 122.08137 | 21424 ft | 390 kts | 338° |
| 2026-04-17 12:51 | 11.80996 | 122.07046 | 21696 ft | 392 kts | 338° |
| 2026-04-17 12:52 | 11.83517 | 122.05949 | 21967 ft | 394 kts | 338° |
| 2026-04-17 12:52 | 11.86054 | 122.04845 | 22226 ft | 396 kts | 338° |
| 2026-04-17 12:52 | 11.88597 | 122.03738 | 22497 ft | 398 kts | 338° |
| 2026-04-17 12:52 | 11.91143 | 122.02630 | 22765 ft | 400 kts | 338° |
| 2026-04-17 12:53 | 11.93713 | 122.01510 | 23035 ft | 402 kts | 338° |
| 2026-04-17 12:53 | 11.96297 | 122.00384 | 23304 ft | 403 kts | 338° |
| 2026-04-17 12:53 | 11.98883 | 121.99258 | 23567 ft | 405 kts | 338° |
| 2026-04-17 12:53 | 12.01483 | 121.98125 | 23827 ft | 407 kts | 338° |
| 2026-04-17 12:54 | 12.04100 | 121.96983 | 24085 ft | 409 kts | 338° |
| 2026-04-17 12:54 | 12.06727 | 121.95837 | 24338 ft | 411 kts | 338° |
| 2026-04-17 12:54 | 12.09384 | 121.94678 | 24592 ft | 412 kts | 338° |
| 2026-04-17 12:54 | 12.12015 | 121.93532 | 24838 ft | 414 kts | 338° |
| 2026-04-17 12:55 | 12.14700 | 121.92360 | 25084 ft | 416 kts | 338° |
| 2026-04-17 12:55 | 12.17370 | 121.91194 | 25326 ft | 417 kts | 338° |
| 2026-04-17 12:55 | 12.20040 | 121.90029 | 25557 ft | 419 kts | 338° |
| 2026-04-17 12:55 | 12.22746 | 121.88847 | 25787 ft | 421 kts | 338° |
| 2026-04-17 12:56 | 12.25438 | 121.87669 | 26016 ft | 423 kts | 338° |
| 2026-04-17 12:56 | 12.28155 | 121.86481 | 26240 ft | 424 kts | 338° |
| 2026-04-17 12:56 | 12.30856 | 121.85298 | 26459 ft | 426 kts | 338° |
| 2026-04-17 12:56 | 12.33631 | 121.84084 | 26685 ft | 427 kts | 338° |
| 2026-04-17 12:57 | 12.36372 | 121.82887 | 26897 ft | 429 kts | 338° |
| 2026-04-17 12:57 | 12.39128 | 121.81686 | 27110 ft | 431 kts | 338° |
| 2026-04-17 12:57 | 12.41896 | 121.80479 | 27315 ft | 432 kts | 338° |
| 2026-04-17 12:57 | 12.44676 | 121.79268 | 27511 ft | 434 kts | 338° |
| 2026-04-17 12:58 | 12.47441 | 121.78060 | 27721 ft | 436 kts | 338° |
| 2026-04-17 12:58 | 12.50243 | 121.76836 | 27944 ft | 437 kts | 338° |
| 2026-04-17 12:58 | 12.53058 | 121.75603 | 28159 ft | 438 kts | 338° |
| 2026-04-17 12:58 | 12.55840 | 121.74385 | 28358 ft | 440 kts | 338° |
| 2026-04-17 12:59 | 12.58679 | 121.73141 | 28556 ft | 441 kts | 338° |
| 2026-04-17 12:59 | 12.61516 | 121.71897 | 28757 ft | 443 kts | 338° |
| 2026-04-17 12:59 | 12.64357 | 121.70652 | 28974 ft | 444 kts | 338° |
| 2026-04-17 12:59 | 12.67216 | 121.69399 | 29196 ft | 445 kts | 338° |
| 2026-04-17 13:00 | 12.70079 | 121.68143 | 29415 ft | 446 kts | 338° |
| 2026-04-17 13:00 | 12.72900 | 121.66906 | 29667 ft | 446 kts | 337° |
| 2026-04-17 13:00 | 12.75771 | 121.65645 | 29882 ft | 447 kts | 338° |
| 2026-04-17 13:01 | 12.81525 | 121.63118 | 29904 ft | 447 kts | 337° |
| 2026-04-17 13:01 | 12.87222 | 121.60614 | 29912 ft | 446 kts | 338° |
| 2026-04-17 13:02 | 12.92969 | 121.58088 | 29919 ft | 446 kts | 338° |
| 2026-04-17 13:02 | 12.97147 | 121.56252 | 29926 ft | 446 kts | 338° |
| 2026-04-17 13:03 | 13.02890 | 121.53725 | 29922 ft | 447 kts | 338° |
| 2026-04-17 13:03 | 13.08585 | 121.51218 | 29923 ft | 447 kts | 338° |
| 2026-04-17 13:04 | 13.14323 | 121.48691 | 29925 ft | 446 kts | 338° |
| 2026-04-17 13:04 | 13.18135 | 121.47011 | 29929 ft | 446 kts | 338° |
| 2026-04-17 13:05 | 13.25763 | 121.43647 | 29925 ft | 446 kts | 337° |
| 2026-04-17 13:05 | 13.31491 | 121.41119 | 29928 ft | 446 kts | 337° |
| 2026-04-17 13:06 | 13.37200 | 121.38597 | 29929 ft | 445 kts | 337° |
| 2026-04-17 13:06 | 13.42902 | 121.36075 | 29929 ft | 445 kts | 337° |
| 2026-04-17 13:07 | 13.47592 | 121.34000 | 29686 ft | 437 kts | 337° |
| 2026-04-17 13:07 | 13.51307 | 121.32359 | 29060 ft | 425 kts | 338° |
| 2026-04-17 13:07 | 13.54063 | 121.31400 | 28447 ft | 422 kts | 346° |
| 2026-04-17 13:07 | 13.56922 | 121.30868 | 28087 ft | 414 kts | 354° |
| 2026-04-17 13:08 | 13.59770 | 121.30653 | 27692 ft | 407 kts | 357° |
| 2026-04-17 13:08 | 13.62590 | 121.30507 | 27303 ft | 402 kts | 358° |
| 2026-04-17 13:08 | 13.65377 | 121.30371 | 26919 ft | 396 kts | 358° |
| 2026-04-17 13:08 | 13.68123 | 121.30233 | 26540 ft | 390 kts | 358° |
| 2026-04-17 13:09 | 13.70808 | 121.30093 | 26170 ft | 385 kts | 358° |
| 2026-04-17 13:09 | 13.73461 | 121.29953 | 25806 ft | 379 kts | 358° |
| 2026-04-17 13:09 | 13.76097 | 121.29811 | 25441 ft | 374 kts | 358° |
| 2026-04-17 13:09 | 13.78669 | 121.29672 | 25039 ft | 371 kts | 358° |
| 2026-04-17 13:10 | 13.81255 | 121.29531 | 24599 ft | 368 kts | 358° |
| 2026-04-17 13:10 | 13.83819 | 121.29391 | 24161 ft | 365 kts | 358° |
| 2026-04-17 13:10 | 13.86339 | 121.29253 | 23725 ft | 363 kts | 358° |
| 2026-04-17 13:10 | 13.88851 | 121.29117 | 23298 ft | 360 kts | 358° |
| 2026-04-17 13:11 | 13.91353 | 121.28980 | 22871 ft | 358 kts | 359° |
| 2026-04-17 13:11 | 13.93839 | 121.28844 | 22441 ft | 356 kts | 359° |
| 2026-04-17 13:11 | 13.96313 | 121.28709 | 22020 ft | 354 kts | 359° |
| 2026-04-17 13:11 | 13.98780 | 121.28575 | 21618 ft | 351 kts | 359° |
| 2026-04-17 13:12 | 14.01208 | 121.28443 | 21234 ft | 348 kts | 359° |
| 2026-04-17 13:12 | 14.05985 | 121.28514 | 20479 ft | 340 kts | 8° |
| 2026-04-17 13:12 | 14.08346 | 121.28857 | 20094 ft | 337 kts | 11° |
| 2026-04-17 13:13 | 14.10628 | 121.29241 | 19712 ft | 334 kts | 11° |
| 2026-04-17 13:13 | 14.12941 | 121.29637 | 19321 ft | 331 kts | 11° |
| 2026-04-17 13:13 | 14.15192 | 121.30022 | 18943 ft | 328 kts | 11° |
| 2026-04-17 13:13 | 14.17460 | 121.30408 | 18562 ft | 325 kts | 11° |
| 2026-04-17 13:14 | 14.19688 | 121.30785 | 18158 ft | 324 kts | 10° |
| 2026-04-17 13:14 | 14.21901 | 121.31161 | 17667 ft | 325 kts | 10° |
| 2026-04-17 13:14 | 14.24132 | 121.31538 | 17240 ft | 324 kts | 10° |
| 2026-04-17 13:14 | 14.26347 | 121.31912 | 16829 ft | 321 kts | 10° |
| 2026-04-17 13:15 | 14.28548 | 121.32283 | 16431 ft | 319 kts | 10° |
| 2026-04-17 13:15 | 14.30759 | 121.32657 | 16032 ft | 317 kts | 10° |
| 2026-04-17 13:15 | 14.32910 | 121.33020 | 15648 ft | 314 kts | 10° |
| 2026-04-17 13:15 | 14.35072 | 121.33386 | 15271 ft | 311 kts | 10° |
| 2026-04-17 13:16 | 14.37181 | 121.33742 | 15143 ft | 299 kts | 10° |
| 2026-04-17 13:16 | 14.39204 | 121.33817 | 14993 ft | 290 kts | 352° |
| 2026-04-17 13:16 | 14.41113 | 121.33157 | 14679 ft | 289 kts | 334° |
| 2026-04-17 13:16 | 14.42872 | 121.32130 | 14298 ft | 288 kts | 332° |
| 2026-04-17 13:17 | 14.44579 | 121.31097 | 13947 ft | 286 kts | 332° |
| 2026-04-17 13:17 | 14.46288 | 121.30070 | 13619 ft | 283 kts | 333° |
| 2026-04-17 13:17 | 14.48070 | 121.29305 | 13479 ft | 267 kts | 356° |
| 2026-04-17 13:17 | 14.49841 | 121.29586 | 13266 ft | 258 kts | 29° |
| 2026-04-17 13:18 | 14.51148 | 121.30793 | 12902 ft | 255 kts | 57° |
| 2026-04-17 13:18 | 14.51999 | 121.32398 | 12581 ft | 254 kts | 61° |
| 2026-04-17 13:18 | 14.52843 | 121.33995 | 12271 ft | 252 kts | 60° |
| 2026-04-17 13:18 | 14.53699 | 121.35564 | 11949 ft | 250 kts | 60° |
| 2026-04-17 13:19 | 14.54551 | 121.37104 | 11674 ft | 246 kts | 59° |
| 2026-04-17 13:19 | 14.55391 | 121.38612 | 11399 ft | 241 kts | 59° |
| 2026-04-17 13:19 | 14.56227 | 121.40111 | 11109 ft | 238 kts | 59° |
| 2026-04-17 13:19 | 14.57046 | 121.41576 | 10780 ft | 237 kts | 59° |
| 2026-04-17 13:20 | 14.58109 | 121.42871 | 10393 ft | 237 kts | 33° |
| 2026-04-17 13:20 | 14.59661 | 121.43428 | 10036 ft | 239 kts | 5° |
| 2026-04-17 13:20 | 14.61301 | 121.43147 | 9700 ft | 243 kts | 339° |
| 2026-04-17 13:20 | 14.62787 | 121.42355 | 9426 ft | 240 kts | 335° |
| 2026-04-17 13:21 | 14.64260 | 121.41541 | 9151 ft | 236 kts | 335° |
| 2026-04-17 13:21 | 14.65690 | 121.40758 | 8879 ft | 232 kts | 335° |
| 2026-04-17 13:21 | 14.67119 | 121.39982 | 8588 ft | 229 kts | 336° |
| 2026-04-17 13:21 | 14.68511 | 121.39194 | 8272 ft | 229 kts | 328° |
| 2026-04-17 13:22 | 14.69539 | 121.37942 | 7897 ft | 236 kts | 293° |
| 2026-04-17 13:22 | 14.69745 | 121.36278 | 7564 ft | 237 kts | 259° |
| 2026-04-17 13:22 | 14.69163 | 121.34705 | 7273 ft | 235 kts | 243° |
| 2026-04-17 13:22 | 14.68360 | 121.33247 | 6965 ft | 233 kts | 240° |
| 2026-04-17 13:23 | 14.67513 | 121.31795 | 6645 ft | 232 kts | 239° |
| 2026-04-17 13:23 | 14.66694 | 121.30386 | 6340 ft | 230 kts | 240° |
| 2026-04-17 13:23 | 14.65880 | 121.28967 | 6043 ft | 228 kts | 240° |
| 2026-04-17 13:23 | 14.65081 | 121.27554 | 5731 ft | 227 kts | 240° |
| 2026-04-17 13:24 | 14.64283 | 121.26127 | 5413 ft | 226 kts | 240° |
| 2026-04-17 13:24 | 14.63511 | 121.24740 | 5114 ft | 225 kts | 240° |
| 2026-04-17 13:24 | 14.62728 | 121.23329 | 4801 ft | 224 kts | 240° |
| 2026-04-17 13:24 | 14.61955 | 121.21933 | 4497 ft | 223 kts | 241° |
| 2026-04-17 13:25 | 14.61186 | 121.20547 | 4189 ft | 222 kts | 240° |
| 2026-04-17 13:25 | 14.60430 | 121.19183 | 3885 ft | 221 kts | 241° |
| 2026-04-17 13:25 | 14.59662 | 121.17798 | 3577 ft | 220 kts | 240° |
| 2026-04-17 13:25 | 14.58904 | 121.16434 | 3275 ft | 219 kts | 240° |
| 2026-04-17 13:26 | 14.58149 | 121.15074 | 2970 ft | 218 kts | 240° |
| 2026-04-17 13:26 | 14.57402 | 121.13728 | 2694 ft | 211 kts | 240° |
| 2026-04-17 13:26 | 14.56697 | 121.12460 | 2386 ft | 201 kts | 241° |
| 2026-04-17 13:26 | 14.56014 | 121.11231 | 1999 ft | 196 kts | 240° |
| 2026-04-17 13:27 | 14.55352 | 121.10028 | 1627 ft | 185 kts | 239° |
| 2026-04-17 13:27 | 14.54734 | 121.08925 | 1383 ft | 169 kts | 240° |
| 2026-04-17 13:27 | 14.54169 | 121.07915 | 1138 ft | 154 kts | 240° |
| 2026-04-17 13:27 | 14.53658 | 121.06992 | 932 ft | 144 kts | 240° |
| 2026-04-17 13:28 | 14.53165 | 121.06102 | 775 ft | 143 kts | 240° |
| 2026-04-17 13:28 | 14.52666 | 121.05203 | 604 ft | 142 kts | 239° |
| 2026-04-17 13:28 | 14.52173 | 121.04319 | 424 ft | 141 kts | 240° |
| 2026-04-17 13:28 | 14.51687 | 121.03439 | 244 ft | 141 kts | 239° |
| 2026-04-17 13:29 | 14.51203 | 121.02567 | 85 ft | 136 kts | 241° |
| 2026-04-17 13:29 | 14.50799 | 121.01837 | 82 ft | 94 kts | 239° |
| 2026-04-17 13:29 | 14.50581 | 121.01447 | 82 ft | 26 kts | 243° |
| 2026-04-17 13:29 | 14.50538 | 121.01305 | 82 ft | 18 kts | 260° |
| 2026-04-17 13:30 | 14.50526 | 121.01206 | 82 ft | 5 kts | 263° |
| 2026-04-17 13:30 | 14.50535 | 121.01171 | 82 ft | 5 kts | 321° |
| 2026-04-17 13:30 | 14.50572 | 121.01162 | 82 ft | 5 kts | 20° |
| 2026-04-17 13:30 | 14.50601 | 121.01196 | 82 ft | 6 kts | 60° |
| 2026-04-17 13:31 | 14.50627 | 121.01242 | 82 ft | 7 kts | 60° |
| 2026-04-17 13:31 | 14.50655 | 121.01294 | 82 ft | 8 kts | 60° |
| 2026-04-17 13:31 | 14.50688 | 121.01353 | 82 ft | 10 kts | 60° |
| 2026-04-17 13:31 | 14.50728 | 121.01424 | 82 ft | 11 kts | 60° |
| 2026-04-17 13:32 | 14.50769 | 121.01498 | 82 ft | 12 kts | 60° |
| 2026-04-17 13:32 | 14.50812 | 121.01576 | 82 ft | 12 kts | 60° |
| 2026-04-17 13:32 | 14.50858 | 121.01658 | 82 ft | 13 kts | 60° |
| 2026-04-17 13:32 | 14.50903 | 121.01740 | 82 ft | 13 kts | 60° |
| 2026-04-17 13:33 | 14.50948 | 121.01820 | 82 ft | 12 kts | 60° |
| 2026-04-17 13:33 | 14.50987 | 121.01892 | 82 ft | 8 kts | 60° |
| 2026-04-17 13:33 | 14.51031 | 121.01916 | 82 ft | 7 kts | 346° |
| 2026-04-17 13:33 | 14.51071 | 121.01884 | 82 ft | 7 kts | 316° |
| 2026-04-17 13:34 | 14.51107 | 121.01849 | 82 ft | 6 kts | 316° |
| 2026-04-17 13:34 | 14.51143 | 121.01811 | 82 ft | 8 kts | 314° |
| 2026-04-17 13:34 | 14.51191 | 121.01760 | 82 ft | 10 kts | 314° |
| 2026-04-17 13:34 | 14.51243 | 121.01706 | 82 ft | 10 kts | 314° |
| 2026-04-17 13:35 | 14.51293 | 121.01653 | 82 ft | 10 kts | 315° |
| 2026-04-17 13:35 | 14.51342 | 121.01604 | 82 ft | 9 kts | 315° |
| 2026-04-17 13:35 | 14.51377 | 121.01569 | 82 ft | 4 kts | 334° |
| 2026-04-17 13:35 | 14.51407 | 121.01574 | 82 ft | 4 kts | 34° |
| 2026-04-17 13:36 | 14.51436 | 121.01595 | 82 ft | 5 kts | 34° |
| 2026-04-17 13:36 | 14.51470 | 121.01620 | 82 ft | 7 kts | 40° |
| 2026-04-17 13:36 | 14.51514 | 121.01664 | 82 ft | 9 kts | 45° |
| 2026-04-17 13:36 | 14.51564 | 121.01716 | 82 ft | 10 kts | 45° |
| 2026-04-17 13:37 | 14.51614 | 121.01766 | 82 ft | 9 kts | 45° |
| 2026-04-17 13:37 | 14.51674 | 121.01780 | 82 ft | 8 kts | 341° |
| 2026-04-17 13:37 | 14.51684 | 121.01746 | 82 ft | 5 kts | 232° |
| 2026-04-17 13:37 | 14.51661 | 121.01723 | 82 ft | 2 kts | 223° |
| 2026-04-17 13:38 | 14.51655 | 121.01717 | 82 ft | 0 kts | 224° |